Time;durP1;ratioP1;P1;durP2;ratioP2;P2;SDS_P1;SDS_P2;PMS_P1;PMS_P2;Temp;Humidity;BMP_temperature;BMP_pressure;BME280_temperature;BME280_humidity;BME280_pressure;Samples;Min_cycle;Max_cycle;Signal;HPM_P1;HPM_P2
2021/03/18 00:02:14;;;;;;;6.35;2.60;;;;;;;5.53;38.93;102263.94;5018326;28;20121;-72
2021/03/18 00:04:42;;;;;;;5.28;2.33;;;;;;;5.51;38.96;102252.25;5013259;28;20521;-72
2021/03/18 00:07:10;;;;;;;5.38;2.30;;;;;;;5.52;39.10;102250.44;5009531;28;20042;-71
2021/03/18 00:09:37;;;;;;;4.05;2.17;;;;;;;5.48;39.03;102236.13;5012400;28;20088;-72
2021/03/18 00:12:06;;;;;;;4.82;2.00;;;;;;;5.48;38.98;102241.56;5009880;28;20453;-72
2021/03/18 00:14:33;;;;;;;4.40;2.50;;;;;;;5.47;38.92;102233.44;5002183;28;20699;-72
2021/03/18 00:17:01;;;;;;;4.05;2.38;;;;;;;5.45;39.17;102238.03;5011076;28;20038;-72
2021/03/18 00:19:29;;;;;;;4.93;2.28;;;;;;;5.44;38.94;102237.16;5001015;28;20034;-72
2021/03/18 00:21:57;;;;;;;5.80;2.75;;;;;;;5.43;38.98;102239.97;5010068;28;20064;-72
2021/03/18 00:24:25;;;;;;;5.97;2.47;;;;;;;5.42;39.03;102249.06;5004850;28;20064;-73
2021/03/18 00:26:52;;;;;;;5.45;2.47;;;;;;;5.41;38.95;102247.28;5003009;28;20119;-72
2021/03/18 00:29:20;;;;;;;5.28;2.55;;;;;;;5.37;39.14;102249.22;5009156;28;20073;-72
2021/03/18 00:31:55;;;;;;;5.68;2.58;;;;;;;5.37;39.16;102242.91;5016660;28;20037;-72
2021/03/18 00:34:23;;;;;;;6.25;3.03;;;;;;;5.35;39.22;102248.41;5013378;28;20045;-72
2021/03/18 00:36:50;;;;;;;4.82;2.53;;;;;;;5.34;39.27;102245.78;5010768;28;20038;-72
2021/03/18 00:39:17;;;;;;;5.68;2.72;;;;;;;5.33;39.34;102247.59;5002466;28;20077;-73
2021/03/18 00:41:45;;;;;;;5.85;3.03;;;;;;;5.33;39.21;102249.44;5007127;28;20045;-72
2021/03/18 00:44:13;;;;;;;5.57;2.65;;;;;;;5.30;39.17;102249.56;5009746;28;20523;-72
2021/03/18 00:46:40;;;;;;;7.30;3.08;;;;;;;5.29;39.53;102250.50;5026657;28;20096;-72
2021/03/18 00:49:09;;;;;;;5.55;2.97;;;;;;;5.27;39.52;102255.97;5011609;28;20038;-72
2021/03/18 00:51:36;;;;;;;5.35;3.50;;;;;;;5.26;39.65;102256.97;5006914;28;20049;-72
2021/03/18 00:54:06;;;;;;;7.80;3.38;;;;;;;5.25;39.53;102251.59;5024859;28;20048;-72
2021/03/18 00:56:34;;;;;;;6.70;3.65;;;;;;;5.22;39.57;102245.34;5008979;28;20099;-72
2021/03/18 00:59:04;;;;;;;7.53;3.63;;;;;;;5.24;39.66;102248.00;5009803;28;20080;-72
2021/03/18 01:01:32;;;;;;;9.70;4.13;;;;;;;5.22;39.92;102258.03;5010081;28;20053;-71
2021/03/18 01:04:00;;;;;;;9.48;3.80;;;;;;;5.20;39.78;102263.50;5015992;28;20107;-72
2021/03/18 01:06:30;;;;;;;7.60;3.92;;;;;;;5.18;39.89;102273.53;5009248;28;20049;-72
2021/03/18 01:09:02;;;;;;;8.00;4.10;;;;;;;5.18;39.96;102275.38;5009878;28;20068;-72
2021/03/18 01:16:17;;;;;;;9.98;3.95;;;;;;;5.07;40.25;102267.69;5005865;28;20037;-72
2021/03/18 01:18:47;;;;;;;7.70;3.97;;;;;;;5.09;40.19;102276.66;5018313;28;20146;-72
2021/03/18 01:21:16;;;;;;;8.13;4.07;;;;;;;5.08;40.07;102255.00;5014783;28;20092;-71
2021/03/18 01:23:44;;;;;;;8.80;4.47;;;;;;;5.07;40.22;102258.66;5013325;28;20106;-72
2021/03/18 01:26:11;;;;;;;8.23;4.55;;;;;;;5.06;39.89;102263.19;5009251;28;20042;-72
2021/03/18 01:28:39;;;;;;;8.38;4.38;;;;;;;5.06;39.91;102265.03;5017395;28;20485;-72
2021/03/18 01:31:08;;;;;;;8.05;3.88;;;;;;;5.05;40.21;102271.41;5011276;28;20489;-72
2021/03/18 01:33:38;;;;;;;8.43;4.10;;;;;;;5.04;40.22;102269.63;5017100;28;20405;-73
2021/03/18 01:36:08;;;;;;;7.43;3.80;;;;;;;5.04;40.11;102273.22;5011894;28;20485;-72
2021/03/18 01:38:35;;;;;;;8.25;4.22;;;;;;;5.03;40.37;102265.13;5009835;28;20120;-72
2021/03/18 01:41:04;;;;;;;6.50;3.30;;;;;;;5.01;40.24;102265.22;5011131;28;20073;-72
2021/03/18 01:43:32;;;;;;;8.77;3.90;;;;;;;5.01;39.96;102261.63;5011142;28;20045;-72
2021/03/18 01:45:59;;;;;;;7.22;3.45;;;;;;;5.00;40.20;102268.00;5009371;28;20045;-72
2021/03/18 01:48:29;;;;;;;7.47;3.85;;;;;;;5.00;40.38;102268.00;5020565;28;20425;-72
2021/03/18 01:51:00;;;;;;;7.32;3.90;;;;;;;4.99;40.55;102261.69;5007883;28;20125;-72
2021/03/18 01:53:28;;;;;;;6.85;3.95;;;;;;;4.98;40.51;102257.22;5010995;28;20046;-72
2021/03/18 01:55:57;;;;;;;7.22;3.83;;;;;;;4.98;40.55;102251.78;5004820;28;20157;-72
2021/03/18 01:58:25;;;;;;;7.93;3.60;;;;;;;4.96;40.49;102259.09;5006645;28;20505;-72
2021/03/18 02:00:55;;;;;;;7.22;3.53;;;;;;;4.97;40.68;102260.88;5007084;28;20030;-73
2021/03/18 02:03:22;;;;;;;6.97;3.40;;;;;;;4.96;40.53;102260.91;5013727;28;20062;-72
2021/03/18 02:05:51;;;;;;;6.38;3.70;;;;;;;4.96;40.72;102264.50;5011581;28;20046;-72
2021/03/18 02:08:20;;;;;;;7.22;3.55;;;;;;;4.94;40.42;102257.38;5007612;28;20034;-72
2021/03/18 02:10:48;;;;;;;7.57;3.70;;;;;;;4.93;40.58;102266.47;5003065;28;20058;-73
2021/03/18 02:13:16;;;;;;;6.90;3.78;;;;;;;4.92;40.32;102256.59;5008655;28;20043;-72
2021/03/18 02:15:47;;;;;;;6.72;3.70;;;;;;;4.92;40.62;102257.47;5009903;28;20042;-72
2021/03/18 02:18:21;;;;;;;7.05;3.55;;;;;;;4.91;40.90;102254.81;5007165;28;20418;-72
2021/03/18 02:21:34;;;;;;;6.20;3.65;;;;;;;4.88;41.01;102246.78;5008525;28;20038;-73
2021/03/18 02:24:18;;;;;;;6.72;3.13;;;;;;;4.86;40.95;102249.56;5020883;28;20069;-72
2021/03/18 02:27:41;;;;;;;8.18;3.70;;;;;;;4.80;41.08;102250.69;5009815;28;20050;-72
2021/03/18 02:30:41;;;;;;;7.35;3.35;;;;;;;4.78;41.19;102248.97;5006907;28;20033;-72
2021/03/18 02:34:00;;;;;;;6.50;3.60;;;;;;;4.78;41.15;102240.84;5014954;28;20050;-72
2021/03/18 02:36:35;;;;;;;6.78;3.22;;;;;;;4.79;40.95;102237.19;5004030;28;20038;-72
2021/03/18 02:39:07;;;;;;;6.85;3.85;;;;;;;4.78;40.93;102246.28;5008809;28;20057;-72
2021/03/18 02:41:40;;;;;;;7.38;3.95;;;;;;;4.77;40.74;102239.13;5020570;28;20049;-72
2021/03/18 02:44:11;;;;;;;8.88;4.00;;;;;;;4.74;41.06;102234.69;5015383;28;20049;-72
2021/03/18 02:46:41;;;;;;;8.13;4.00;;;;;;;4.74;40.80;102231.97;5008947;28;20466;-72
2021/03/18 02:49:11;;;;;;;7.43;4.50;;;;;;;4.74;40.72;102231.09;5012272;28;20405;-72
2021/03/18 02:51:43;;;;;;;7.65;4.20;;;;;;;4.73;41.13;102224.78;5013068;28;20060;-72
2021/03/18 02:54:13;;;;;;;6.78;3.78;;;;;;;4.70;40.82;102218.59;5012301;28;20038;-72
2021/03/18 02:56:45;;;;;;;6.95;4.03;;;;;;;4.70;40.97;102222.19;5008014;28;20053;-72
2021/03/18 02:59:16;;;;;;;7.35;3.95;;;;;;;4.67;40.97;102214.19;5009409;28;20046;-72
2021/03/18 03:01:45;;;;;;;7.72;4.25;;;;;;;4.67;40.91;102214.19;5011913;28;20053;-72
2021/03/18 03:04:14;;;;;;;9.02;4.32;;;;;;;4.65;41.18;102210.66;5011234;28;20044;-72
2021/03/18 03:06:43;;;;;;;8.30;4.22;;;;;;;4.64;40.89;102199.88;5012868;28;20338;-72
2021/03/18 03:09:12;;;;;;;7.50;3.90;;;;;;;4.64;40.98;102205.28;5016084;28;20041;-72
2021/03/18 03:11:41;;;;;;;7.18;4.05;;;;;;;4.62;41.12;102197.22;5004098;28;20468;-72
2021/03/18 03:14:10;;;;;;;6.30;3.80;;;;;;;4.62;41.12;102204.47;5008619;28;20481;-72
2021/03/18 03:16:38;;;;;;;8.07;3.88;;;;;;;4.59;41.17;102201.91;5006001;28;20042;-72
2021/03/18 03:19:07;;;;;;;6.72;3.90;;;;;;;4.59;40.78;102212.72;5010135;28;20050;-72
2021/03/18 03:21:36;;;;;;;5.72;3.65;;;;;;;4.57;41.24;102220.91;5013315;28;20046;-72
2021/03/18 03:24:07;;;;;;;7.70;3.95;;;;;;;4.56;41.16;102212.84;5010025;28;20038;-72
2021/03/18 03:26:35;;;;;;;7.57;3.50;;;;;;;4.54;41.08;102214.72;5012348;28;20050;-72
2021/03/18 03:29:03;;;;;;;8.45;3.40;;;;;;;4.53;41.18;102216.53;5001566;28;20046;-72
2021/03/18 03:31:30;;;;;;;6.97;3.47;;;;;;;4.52;41.14;102220.22;5011801;28;20121;-72
2021/03/18 03:34:04;;;;;;;7.03;3.80;;;;;;;4.51;41.05;102218.47;5013251;28;20552;-73
2021/03/18 03:36:33;;;;;;;5.95;3.38;;;;;;;4.49;41.16;102217.63;5011000;28;20042;-72
2021/03/18 03:39:01;;;;;;;7.20;3.75;;;;;;;4.49;41.13;102209.50;5001713;28;20038;-72
2021/03/18 03:41:29;;;;;;;5.97;3.40;;;;;;;4.49;41.11;102209.50;5004042;28;20136;-72
2021/03/18 03:43:57;;;;;;;6.63;3.15;;;;;;;4.48;41.32;102206.84;5012193;28;20061;-72
2021/03/18 03:46:24;;;;;;;9.02;3.28;;;;;;;4.48;41.16;102214.97;5011671;28;20053;-72
2021/03/18 03:49:35;;;;;;;6.38;3.45;;;;;;;4.46;41.53;102218.63;5017923;28;20508;-72
2021/03/18 03:55:20;;;;;;;6.50;2.97;;;;;;;4.41;41.67;102223.34;5010775;28;20037;-72
2021/03/18 03:57:55;;;;;;;6.53;3.30;;;;;;;4.42;41.84;102216.09;5011853;28;20038;-72
2021/03/18 04:00:24;;;;;;;7.88;3.33;;;;;;;4.40;41.32;102218.88;5011869;28;20103;-72
2021/03/18 04:03:03;;;;;;;8.70;3.05;;;;;;;4.39;41.56;102227.06;5009584;28;20860;-72
2021/03/18 04:05:32;;;;;;;6.50;3.38;;;;;;;4.36;41.42;102228.03;5000734;28;20125;-72
2021/03/18 04:08:02;;;;;;;8.70;3.40;;;;;;;4.39;41.78;102236.06;5006530;28;20069;-72
2021/03/18 04:10:31;;;;;;;5.70;2.95;;;;;;;4.38;41.87;102236.13;5006189;28;20037;-72
2021/03/18 04:13:02;;;;;;;7.68;3.97;;;;;;;4.39;41.51;102235.19;5006409;28;20038;-72
2021/03/18 04:15:34;;;;;;;7.30;3.03;;;;;;;4.38;41.93;102226.16;5003362;28;20136;-72
2021/03/18 04:18:31;;;;;;;6.78;3.40;;;;;;;4.35;41.93;102229.00;5010851;28;20539;-72
2021/03/18 04:21:01;;;;;;;5.95;3.40;;;;;;;4.35;41.48;102233.56;5010710;28;20030;-72
2021/03/18 04:23:31;;;;;;;7.18;3.40;;;;;;;4.36;41.89;102238.00;5010519;28;20038;-72
2021/03/18 04:25:59;;;;;;;6.75;3.20;;;;;;;4.35;41.61;102228.13;5010001;28;20033;-72
2021/03/18 04:28:30;;;;;;;7.00;3.40;;;;;;;4.36;41.77;102228.03;5011510;28;20474;-72
2021/03/18 04:30:59;;;;;;;7.10;3.03;;;;;;;4.36;42.09;102230.75;5012452;28;20038;-72
2021/03/18 04:33:29;;;;;;;6.28;3.25;;;;;;;4.37;41.98;102224.41;5011546;28;20127;-72
2021/03/18 04:35:58;;;;;;;5.55;3.38;;;;;;;4.38;42.03;102222.56;5012146;28;20496;-72
2021/03/18 04:38:27;;;;;;;5.60;3.33;;;;;;;4.37;41.73;102216.28;5012715;28;20041;-72
2021/03/18 04:40:57;;;;;;;6.72;3.70;;;;;;;4.37;42.05;102216.28;5002114;28;20026;-72
2021/03/18 04:43:25;;;;;;;6.63;3.60;;;;;;;4.39;42.23;102221.63;5010482;28;20045;-72
2021/03/18 04:45:59;;;;;;;6.10;3.20;;;;;;;4.39;42.19;102227.06;5012524;28;20038;-72
2021/03/18 04:48:28;;;;;;;7.05;3.55;;;;;;;4.39;41.97;102217.09;5010995;28;20042;-72
2021/03/18 04:50:57;;;;;;;5.93;3.17;;;;;;;4.39;42.14;102208.97;5001852;28;20112;-72
2021/03/18 04:53:25;;;;;;;6.65;3.58;;;;;;;4.40;41.92;102209.84;5010064;28;20050;-72
2021/03/18 04:55:52;;;;;;;8.02;3.58;;;;;;;4.41;41.92;102217.03;5017459;28;20042;-73
2021/03/18 04:58:21;;;;;;;7.00;3.55;;;;;;;4.42;41.87;102216.09;5019564;28;20043;-72
2021/03/18 05:00:50;;;;;;;5.97;3.80;;;;;;;4.43;41.99;102210.63;5017686;28;20038;-72
2021/03/18 05:03:18;;;;;;;10.13;4.05;;;;;;;4.43;42.21;102213.34;5011801;28;20377;-72
2021/03/18 05:05:47;;;;;;;6.82;4.20;;;;;;;4.43;42.22;102213.34;5011881;28;20112;-72
2021/03/18 05:08:18;;;;;;;8.40;4.05;;;;;;;4.45;42.21;102214.16;5008857;28;20059;-72
2021/03/18 05:10:47;;;;;;;9.57;4.13;;;;;;;4.44;42.12;102208.81;4993400;28;20049;-73
2021/03/18 05:13:15;;;;;;;7.50;4.00;;;;;;;4.44;42.28;102204.25;5004508;28;20049;-72
2021/03/18 05:15:44;;;;;;;9.02;4.40;;;;;;;4.45;42.43;102203.31;5011720;28;20050;-72
2021/03/18 05:18:14;;;;;;;7.40;4.18;;;;;;;4.46;42.32;102201.47;5008946;28;20038;-73
2021/03/18 05:20:44;;;;;;;7.85;4.15;;;;;;;4.48;42.35;102201.44;5000878;28;20069;-72
2021/03/18 05:23:14;;;;;;;7.05;3.67;;;;;;;4.48;42.35;102202.31;5011187;28;20065;-72
2021/03/18 05:25:42;;;;;;;6.97;3.92;;;;;;;4.48;42.07;102193.28;5011279;28;20107;-72
2021/03/18 05:28:10;;;;;;;6.57;4.13;;;;;;;4.49;42.26;102195.97;5012135;28;20365;-72
2021/03/18 05:30:38;;;;;;;8.32;4.10;;;;;;;4.49;42.35;102187.81;5011135;28;20044;-72
2021/03/18 05:33:06;;;;;;;9.00;4.00;;;;;;;4.51;42.34;102191.38;5011575;28;20092;-72
2021/03/18 05:35:38;;;;;;;6.97;3.65;;;;;;;4.52;42.36;102181.41;5005481;28;20045;-72
2021/03/18 05:38:06;;;;;;;8.48;4.10;;;;;;;4.52;42.60;102184.13;5010475;28;20058;-71
2021/03/18 05:40:35;;;;;;;8.27;3.72;;;;;;;4.53;42.48;102177.72;5005358;28;20073;-72
2021/03/18 05:43:03;;;;;;;7.15;3.97;;;;;;;4.53;42.77;102184.03;5010208;28;20120;-72
2021/03/18 05:45:31;;;;;;;7.60;4.20;;;;;;;4.53;42.72;102175.91;5007361;28;20095;-72
2021/03/18 05:48:00;;;;;;;7.97;3.67;;;;;;;4.54;42.62;102176.78;5007719;28;20041;-72
2021/03/18 05:50:33;;;;;;;6.27;3.67;;;;;;;4.53;42.61;102186.75;5009035;28;20066;-72
2021/03/18 05:53:03;;;;;;;7.28;3.58;;;;;;;4.56;42.85;102186.63;5007242;28;20085;-72
2021/03/18 05:55:32;;;;;;;7.70;3.83;;;;;;;4.56;42.68;102185.75;5003562;28;20381;-71
2021/03/18 05:58:01;;;;;;;7.88;3.97;;;;;;;4.57;42.60;102172.13;5002353;28;20132;-71
2021/03/18 06:00:31;;;;;;;10.00;4.03;;;;;;;4.58;42.40;102182.03;5014630;28;20046;-72
2021/03/18 06:03:00;;;;;;;7.38;4.40;;;;;;;4.59;42.81;102177.50;5012385;28;20096;-72
2021/03/18 06:05:28;;;;;;;6.38;3.70;;;;;;;4.60;42.60;102177.44;5013499;28;20517;-72
2021/03/18 06:07:56;;;;;;;7.70;4.10;;;;;;;4.61;42.79;102162.03;5013009;28;20041;-71
2021/03/18 06:10:26;;;;;;;8.20;4.47;;;;;;;4.63;42.64;102173.72;5014101;28;20044;-71
2021/03/18 06:12:58;;;;;;;6.60;3.47;;;;;;;4.65;42.76;102171.81;5010421;28;20038;-71
2021/03/18 06:15:26;;;;;;;6.57;3.78;;;;;;;4.65;42.95;102174.53;5013342;28;20655;-71
2021/03/18 06:17:54;;;;;;;7.65;3.92;;;;;;;4.67;42.63;102173.53;5014300;28;20060;-71
2021/03/18 06:20:24;;;;;;;7.45;4.10;;;;;;;4.68;42.78;102166.28;5012587;28;20041;-71
2021/03/18 06:22:53;;;;;;;8.43;4.60;;;;;;;4.69;42.72;102165.31;5022300;28;20050;-71
2021/03/18 06:25:25;;;;;;;7.40;4.15;;;;;;;4.72;43.20;102165.19;5020975;28;20496;-71
2021/03/18 06:28:12;;;;;;;9.30;4.25;;;;;;;4.73;43.14;102164.25;5010697;28;20042;-71
2021/03/18 06:30:42;;;;;;;8.15;4.30;;;;;;;4.70;42.81;102177.94;5004084;28;20041;-71
2021/03/18 06:33:18;;;;;;;8.07;4.65;;;;;;;4.73;42.75;102172.41;5013463;28;20409;-71
2021/03/18 06:35:46;;;;;;;10.65;4.88;;;;;;;4.68;42.50;102166.28;5005246;28;20045;-71
2021/03/18 06:38:14;;;;;;;8.38;4.50;;;;;;;4.68;42.51;102152.75;5013593;28;20041;-71
2021/03/18 06:40:43;;;;;;;7.15;4.30;;;;;;;4.68;42.80;102156.34;5011405;28;20044;-71
2021/03/18 06:43:12;;;;;;;7.40;4.15;;;;;;;4.67;42.71;102160.00;5035481;28;20041;-71
2021/03/18 06:45:41;;;;;;;6.95;3.83;;;;;;;4.68;42.65;102153.63;5017893;28;20045;-72
2021/03/18 06:48:11;;;;;;;6.22;4.00;;;;;;;4.69;42.95;102154.47;5007592;28;20076;-71
2021/03/18 06:50:40;;;;;;;8.80;4.63;;;;;;;4.69;42.89;102154.47;5007962;28;20078;-71
2021/03/18 06:53:21;;;;;;;6.63;3.80;;;;;;;4.73;43.48;102154.31;5015032;28;20049;-73
2021/03/18 06:55:48;;;;;;;8.63;4.07;;;;;;;4.71;43.04;102149.88;5028845;28;20481;-72
2021/03/18 06:58:19;;;;;;;6.63;4.03;;;;;;;4.75;43.30;102154.25;5011714;28;20529;-71
2021/03/18 07:00:49;;;;;;;7.13;4.22;;;;;;;4.76;43.11;102150.59;5019745;28;20092;-72
2021/03/18 07:03:28;;;;;;;8.27;4.50;;;;;;;4.78;43.47;102152.28;5009325;28;20536;-72
2021/03/18 07:05:57;;;;;;;8.45;4.65;;;;;;;4.78;43.11;102146.84;5008623;28;20484;-72
2021/03/18 07:08:28;;;;;;;7.72;4.50;;;;;;;4.82;43.29;102143.09;5006190;28;20065;-72
2021/03/18 07:10:56;;;;;;;9.77;4.75;;;;;;;4.83;43.01;102152.09;5012605;28;20037;-73
2021/03/18 07:13:27;;;;;;;11.20;5.22;;;;;;;4.85;43.41;102153.78;5004136;28;20046;-72
2021/03/18 07:15:56;;;;;;;10.60;5.25;;;;;;;4.87;43.27;102151.00;5005974;28;20042;-72
2021/03/18 07:18:24;;;;;;;11.73;5.53;;;;;;;4.89;43.18;102149.13;5013532;28;20049;-73
2021/03/18 07:20:58;;;;;;;10.35;5.00;;;;;;;4.93;43.60;102150.78;5010804;28;20042;-71
2021/03/18 07:23:34;;;;;;;8.13;4.82;;;;;;;4.95;43.22;102150.69;5019611;28;20378;-71
2021/03/18 07:26:10;;;;;;;9.63;5.35;;;;;;;4.95;43.25;102143.44;5012398;28;20128;-71
2021/03/18 07:28:39;;;;;;;8.18;4.90;;;;;;;4.97;43.42;102143.38;5013402;28;20125;-73
2021/03/18 07:31:06;;;;;;;10.52;5.03;;;;;;;4.98;43.33;102131.59;5013285;28;20042;-73
2021/03/18 07:33:34;;;;;;;9.85;4.80;;;;;;;5.01;43.28;102126.03;5013038;28;20468;-73
2021/03/18 07:36:03;;;;;;;8.70;4.80;;;;;;;5.05;43.20;102143.94;5010644;28;20053;-74
2021/03/18 07:38:31;;;;;;;7.75;4.82;;;;;;;5.06;43.58;102141.16;5010332;28;20065;-74
2021/03/18 07:41:01;;;;;;;8.95;4.55;;;;;;;5.09;43.49;102151.88;5009807;28;20042;-75
2021/03/18 07:43:29;;;;;;;9.10;4.57;;;;;;;5.13;43.68;102144.47;5007660;28;20393;-74
2021/03/18 07:45:59;;;;;;;8.75;4.97;;;;;;;5.16;43.61;102144.34;5010198;28;20049;-74
2021/03/18 07:48:30;;;;;;;7.85;4.63;;;;;;;5.19;43.53;102145.09;5006910;28;20046;-73
2021/03/18 07:51:00;;;;;;;9.30;4.80;;;;;;;5.25;43.60;102149.38;5010160;28;20493;-74
2021/03/18 07:53:28;;;;;;;8.13;4.95;;;;;;;5.27;43.61;102139.31;5008904;28;20046;-73
2021/03/18 07:55:57;;;;;;;10.43;5.25;;;;;;;5.31;43.46;102138.25;5012894;28;20037;-72
2021/03/18 07:58:38;;;;;;;7.50;4.75;;;;;;;5.36;43.54;102141.63;5009660;28;20497;-73
2021/03/18 08:01:29;;;;;;;7.15;4.65;;;;;;;5.36;43.49;102138.03;5010575;28;20482;-73
2021/03/18 08:03:57;;;;;;;8.35;4.68;;;;;;;5.41;43.68;102146.88;5011544;28;20488;-71
2021/03/18 08:06:50;;;;;;;9.25;5.05;;;;;;;5.46;43.57;102151.13;5012521;28;20298;-76
2021/03/18 08:09:48;;;;;;;10.55;5.70;;;;;;;5.49;43.59;102140.19;5011071;28;20038;-75
2021/03/18 08:12:16;;;;;;;9.18;5.90;;;;;;;5.48;43.39;102149.28;5010024;28;20065;-75
2021/03/18 08:14:44;;;;;;;10.23;6.53;;;;;;;5.53;43.41;102144.50;5008815;28;20497;-77
2021/03/18 08:17:39;;;;;;;10.60;6.72;;;;;;;5.54;43.42;102145.41;5012461;28;20049;-75
2021/03/18 08:20:08;;;;;;;8.80;5.10;;;;;;;5.56;43.21;102136.25;4974078;28;20081;-73
2021/03/18 08:22:35;;;;;;;10.52;5.90;;;;;;;5.59;43.19;102136.09;5013701;28;20468;-76
2021/03/18 08:25:25;;;;;;;10.30;5.68;;;;;;;5.61;43.74;102138.75;5016273;28;20042;-79
2021/03/18 08:27:52;;;;;;;10.20;6.72;;;;;;;5.61;43.27;102133.31;5015696;28;20057;-77
2021/03/18 08:30:22;;;;;;;12.13;6.45;;;;;;;5.66;43.13;102133.13;5010595;28;20466;-77
2021/03/18 08:32:50;;;;;;;9.85;6.20;;;;;;;5.68;43.27;102133.94;4993163;28;20041;-75
2021/03/18 08:35:28;;;;;;;13.02;8.02;;;;;;;5.71;43.47;102139.22;5018962;28;20041;-73
2021/03/18 08:38:14;;;;;;;11.18;6.72;;;;;;;5.70;43.05;102138.31;5011794;28;20404;-75
2021/03/18 08:40:59;;;;;;;11.02;6.07;;;;;;;5.72;43.34;102140.97;5010402;28;20057;-74
2021/03/18 08:43:27;;;;;;;12.88;6.60;;;;;;;5.72;43.26;102133.72;5025678;28;20038;-75
2021/03/18 08:45:54;;;;;;;11.63;7.00;;;;;;;5.74;43.18;102133.66;5008637;28;20048;-75
2021/03/18 08:48:23;;;;;;;10.35;7.00;;;;;;;5.77;42.99;102134.38;5007503;28;20064;-78
2021/03/18 08:50:59;;;;;;;11.60;6.93;;;;;;;5.81;43.21;102136.00;5009065;28;20042;-77
2021/03/18 08:53:38;;;;;;;14.05;7.00;;;;;;;5.82;43.39;102135.06;5007047;28;20065;-76
2021/03/18 08:56:07;;;;;;;11.52;6.90;;;;;;;5.81;43.17;102130.59;5009139;28;20440;-74
2021/03/18 08:58:47;;;;;;;13.25;7.05;;;;;;;5.86;43.33;102143.94;5010789;28;20429;-73
2021/03/18 09:01:17;;;;;;;15.00;7.38;;;;;;;5.86;43.02;102141.22;5010161;28;20045;-74
2021/03/18 09:03:45;;;;;;;14.18;7.88;;;;;;;5.89;43.16;102146.50;5006125;28;20115;-74
2021/03/18 09:06:18;;;;;;;13.07;7.60;;;;;;;5.92;43.25;102146.38;5009068;28;20038;-74
2021/03/18 09:08:47;;;;;;;8.88;5.95;;;;;;;5.93;43.14;102148.13;5009578;28;20129;-74
2021/03/18 09:11:22;;;;;;;12.20;7.05;;;;;;;5.96;43.19;102146.16;5011429;28;20140;-74
2021/03/18 09:13:49;;;;;;;12.10;7.95;;;;;;;5.96;43.11;102148.88;5009619;28;20042;-72
2021/03/18 09:16:20;;;;;;;11.10;7.80;;;;;;;6.00;43.39;102149.63;5011476;28;20486;-73
2021/03/18 09:18:57;;;;;;;11.70;7.40;;;;;;;6.03;43.11;102152.19;5011456;28;20115;-73
2021/03/18 09:21:25;;;;;;;10.00;6.18;;;;;;;6.03;43.08;102149.47;5007630;28;20204;-73
2021/03/18 09:23:53;;;;;;;10.32;6.88;;;;;;;6.06;43.25;102154.75;5008850;28;20508;-73
2021/03/18 09:26:21;;;;;;;13.63;8.15;;;;;;;6.11;42.92;102149.09;5017715;28;20125;-73
2021/03/18 09:28:50;;;;;;;14.23;8.73;;;;;;;6.12;43.15;102146.31;5009501;28;20049;-74
2021/03/18 09:31:22;;;;;;;11.48;7.20;;;;;;;6.15;43.08;102139.88;5011763;28;20042;-75
2021/03/18 09:33:54;;;;;;;16.77;9.00;;;;;;;6.18;43.05;102148.72;5009080;28;20073;-74
2021/03/18 09:36:24;;;;;;;16.45;8.90;;;;;;;6.20;42.92;102143.22;5018046;28;20049;-72
2021/03/18 09:39:00;;;;;;;14.23;9.15;;;;;;;6.24;42.95;102144.88;5009671;28;20683;-73
2021/03/18 09:41:31;;;;;;;12.40;8.40;;;;;;;6.23;43.05;102138.53;5014588;28;20092;-73
2021/03/18 09:44:06;;;;;;;11.55;8.50;;;;;;;6.28;42.90;102138.31;5013506;28;20048;-73
2021/03/18 09:46:34;;;;;;;12.35;7.70;;;;;;;6.28;42.97;102135.59;5007590;28;20046;-74
2021/03/18 09:49:04;;;;;;;12.93;8.25;;;;;;;6.30;42.86;102134.56;5012027;28;20129;-73
2021/03/18 09:51:35;;;;;;;11.80;7.38;;;;;;;6.33;42.75;102137.16;5031152;28;20062;-73
2021/03/18 09:54:05;;;;;;;15.30;8.93;;;;;;;6.35;42.74;102135.22;5018855;28;20042;-73
2021/03/18 09:56:36;;;;;;;11.50;7.28;;;;;;;6.39;42.76;102132.38;5011053;28;20386;-71
2021/03/18 09:59:05;;;;;;;11.55;8.45;;;;;;;6.39;42.75;102130.53;5013261;28;20061;-77
2021/03/18 10:01:33;;;;;;;10.40;7.82;;;;;;;6.42;42.73;102132.22;5010089;28;20109;-73
2021/03/18 10:04:02;;;;;;;13.32;7.85;;;;;;;6.45;42.67;102134.78;5004759;28;20386;-73
2021/03/18 10:06:34;;;;;;;11.23;6.45;;;;;;;6.48;42.83;102132.81;5007305;28;20042;-75
2021/03/18 10:09:19;;;;;;;9.55;5.65;;;;;;;6.49;42.82;102126.41;5028063;28;20454;-75
2021/03/18 10:11:48;;;;;;;8.05;5.22;;;;;;;6.50;42.68;102128.16;5015619;28;20151;-75
2021/03/18 10:14:17;;;;;;;7.47;4.55;;;;;;;6.55;42.62;102123.38;5014168;28;20044;-75
2021/03/18 10:17:05;;;;;;;7.45;4.70;;;;;;;6.57;42.65;102116.03;5015181;28;20234;-73
2021/03/18 10:19:35;;;;;;;7.78;5.13;;;;;;;6.63;42.46;102120.28;5014393;28;20045;-73
2021/03/18 10:22:07;;;;;;;7.50;4.68;;;;;;;6.66;42.59;102117.41;5014833;28;20122;-75
2021/03/18 10:24:35;;;;;;;8.20;5.20;;;;;;;6.67;42.72;102122.75;4997031;28;20088;-75
2021/03/18 10:27:08;;;;;;;7.88;4.88;;;;;;;6.73;42.04;102108.88;5014719;28;20030;-73
2021/03/18 10:29:37;;;;;;;7.70;5.40;;;;;;;6.74;42.00;102105.19;5006759;28;20041;-74
2021/03/18 10:32:07;;;;;;;6.88;4.53;;;;;;;6.78;42.20;102099.59;5013219;28;20042;-74
2021/03/18 10:34:35;;;;;;;7.82;4.32;;;;;;;6.79;42.30;102091.34;5014759;28;20121;-75
2021/03/18 10:37:21;;;;;;;7.60;4.28;;;;;;;6.82;42.12;102088.50;5014260;28;20042;-77
2021/03/18 10:39:49;;;;;;;7.20;4.65;;;;;;;6.85;42.00;102082.00;5020379;28;20041;-74
2021/03/18 10:42:29;;;;;;;6.15;3.83;;;;;;;6.90;41.74;102083.53;5013161;28;20116;-75
2021/03/18 10:44:56;;;;;;;5.63;4.20;;;;;;;6.91;42.11;102076.25;5011899;28;20042;-75
2021/03/18 10:47:24;;;;;;;7.75;4.50;;;;;;;6.95;42.13;102084.16;5010757;28;20041;-75
2021/03/18 10:49:59;;;;;;;6.10;4.03;;;;;;;7.02;41.63;102082.88;5010312;28;20121;-74
2021/03/18 10:52:33;;;;;;;7.25;4.05;;;;;;;7.04;42.00;102075.56;4995075;28;20041;-74
2021/03/18 10:55:01;;;;;;;6.22;3.90;;;;;;;7.06;41.93;102070.06;5013053;28;20065;-73
2021/03/18 10:57:29;;;;;;;6.30;4.03;;;;;;;7.09;41.97;102061.72;5012444;28;20042;-73
2021/03/18 10:59:57;;;;;;;6.72;4.22;;;;;;;7.14;41.80;102072.38;5013706;28;20046;-72
2021/03/18 11:02:27;;;;;;;5.03;3.58;;;;;;;7.16;41.68;102067.72;5014742;28;20061;-73
2021/03/18 11:04:56;;;;;;;6.65;3.70;;;;;;;7.19;41.72;102059.38;5015002;28;20048;-73
2021/03/18 11:07:24;;;;;;;5.07;3.67;;;;;;;7.20;41.51;102063.88;5013701;28;20037;-73
2021/03/18 11:10:13;;;;;;;6.35;3.38;;;;;;;7.21;41.03;102062.91;5007470;28;20076;-73
2021/03/18 11:12:42;;;;;;;7.35;4.40;;;;;;;7.23;41.34;102061.88;5010982;28;20080;-73
2021/03/18 11:15:14;;;;;;;5.68;4.18;;;;;;;7.23;40.92;102050.13;5012581;28;20559;-73
2021/03/18 11:17:43;;;;;;;6.90;4.35;;;;;;;7.23;41.18;102051.00;5009202;28;20057;-73
2021/03/18 11:20:14;;;;;;;6.47;4.45;;;;;;;7.24;41.14;102047.28;5011218;28;20042;-72
2021/03/18 11:22:42;;;;;;;7.50;4.20;;;;;;;7.26;41.11;102050.81;5013749;28;20390;-73
2021/03/18 11:25:12;;;;;;;5.78;4.18;;;;;;;7.27;40.90;102043.53;5006887;28;20421;-71
2021/03/18 11:27:54;;;;;;;6.47;3.77;;;;;;;7.26;40.63;102045.38;5024990;28;20057;-72
2021/03/18 11:30:33;;;;;;;6.40;3.83;;;;;;;7.27;40.41;102047.13;4970014;28;20302;-72
2021/03/18 11:33:14;;;;;;;5.15;3.78;;;;;;;7.29;40.04;102044.34;5013125;28;20061;-73
2021/03/18 11:35:44;;;;;;;6.32;3.60;;;;;;;7.27;40.83;102038.97;5012548;28;20045;-73
2021/03/18 11:38:13;;;;;;;5.93;3.20;;;;;;;7.28;40.83;102045.28;5010590;28;20041;-73
2021/03/18 11:40:42;;;;;;;4.82;3.08;;;;;;;7.28;40.64;102037.13;5022093;28;20053;-74
2021/03/18 11:43:09;;;;;;;6.47;3.10;;;;;;;7.28;40.74;102034.41;5028217;28;20041;-74
2021/03/18 11:45:38;;;;;;;4.63;2.60;;;;;;;7.30;40.64;102033.38;4991201;28;20066;-74
2021/03/18 11:48:07;;;;;;;4.45;2.38;;;;;;;7.32;40.94;102030.56;5010842;28;20561;-74
2021/03/18 11:50:36;;;;;;;5.38;2.78;;;;;;;7.33;40.66;102033.19;5011008;28;20437;-73
2021/03/18 11:53:04;;;;;;;5.30;2.85;;;;;;;7.36;40.75;102021.25;5005201;28;20042;-73
2021/03/18 11:55:36;;;;;;;3.92;2.40;;;;;;;7.38;40.36;102019.34;5007254;28;20053;-73
2021/03/18 11:58:05;;;;;;;3.75;2.45;;;;;;;7.40;40.58;102015.56;5026767;28;20088;-74
2021/03/18 12:00:35;;;;;;;4.80;3.03;;;;;;;7.42;40.44;102013.63;5011322;28;20148;-74